createdAt,value
2023-02-22T00:01:35.385Z,30.73
2023-02-22T00:04:39.698Z,28.43
2023-02-22T00:07:42.241Z,30.83
2023-02-22T00:10:44.891Z,32.83
2023-02-22T00:13:47.660Z,30.33
2023-02-22T00:16:50.658Z,29.33
2023-02-22T00:19:52.872Z,27.23
2023-02-22T00:22:55.016Z,28.13
2023-02-22T00:25:59.155Z,28.43
2023-02-22T00:29:01.452Z,34.63
2023-02-22T00:32:04.159Z,31.63
2023-02-22T00:35:08.349Z,39.30
2023-02-22T00:38:10.651Z,29.80
2023-02-22T00:41:12.812Z,30.73
2023-02-22T00:44:15.022Z,34.57
2023-02-22T00:47:16.926Z,31.70
2023-02-22T00:50:19.612Z,28.07
2023-02-22T00:53:25.892Z,31.77
2023-02-22T00:56:28.713Z,33.90
2023-02-22T00:59:31.159Z,34.23
2023-02-22T01:05:52.770Z,28.40
2023-02-22T01:08:55.605Z,29.17
2023-02-22T01:11:57.564Z,40.87
2023-02-22T01:14:59.772Z,33.37
2023-02-22T01:18:01.790Z,38.53
2023-02-22T01:21:05.064Z,32.97
2023-02-22T01:24:07.521Z,41.43
2023-02-22T01:27:10.981Z,31.90
2023-02-22T01:30:14.607Z,31.50
2023-02-22T01:33:17.211Z,27.70
2023-02-22T01:36:19.235Z,32.17
2023-02-22T01:39:21.538Z,31.47
2023-02-22T01:42:24.151Z,24.97
2023-02-22T01:45:35.216Z,20.93
2023-02-22T01:48:46.007Z,28.37
2023-02-22T01:51:52.881Z,26.17
2023-02-22T01:54:58.582Z,25.33
2023-02-22T01:58:01.642Z,29.23
2023-02-22T02:01:04.024Z,25.93
2023-02-22T02:04:10.740Z,29.90
2023-02-22T02:07:17.189Z,20.57
2023-02-22T02:10:20.168Z,28.30
2023-02-22T02:13:22.477Z,30.13
2023-02-22T02:16:40.156Z,26.63
2023-02-22T02:20:01.334Z,32.03
2023-02-22T02:23:18.717Z,23.10
2023-02-22T02:27:00.662Z,23.10
2023-02-22T02:30:35.809Z,28.20
2023-02-22T02:33:58.573Z,24.27
2023-02-22T02:37:06.202Z,22.37
2023-02-22T02:40:49.355Z,26.37
2023-02-22T02:44:12.189Z,24.03
2023-02-22T02:47:42.541Z,25.30
2023-02-22T02:50:49.934Z,24.50
2023-02-22T02:53:53.064Z,19.33
2023-02-22T02:56:57.605Z,17.80
2023-02-22T02:59:59.602Z,25.87
2023-02-22T03:03:23.348Z,25.63
2023-02-22T03:06:44.286Z,31.80
2023-02-22T03:10:26.278Z,28.73
2023-02-22T03:13:30.989Z,29.63
2023-02-22T03:16:46.044Z,22.23
2023-02-22T03:20:39.096Z,28.47
2023-02-22T03:23:55.310Z,25.83
2023-02-22T03:27:00.467Z,27.00
2023-02-22T03:30:08.799Z,27.47
2023-02-22T03:33:16.957Z,31.73
2023-02-22T03:36:25.238Z,24.67
2023-02-22T03:39:31.184Z,28.70
2023-02-22T03:42:37.677Z,34.33
2023-02-22T03:45:43.497Z,30.07
2023-02-22T03:49:03.118Z,29.00
2023-02-22T03:52:06.938Z,25.43
2023-02-22T03:55:11.820Z,28.63
2023-02-22T03:58:14.847Z,31.00
2023-02-22T04:01:17.854Z,33.93
2023-02-22T04:04:21.334Z,26.73
2023-02-22T04:07:23.646Z,31.07
2023-02-22T04:10:25.826Z,29.77
2023-02-22T04:13:28.422Z,21.83
2023-02-22T04:16:30.503Z,21.03
2023-02-22T04:19:32.774Z,23.20
2023-02-22T04:22:34.723Z,23.53
2023-02-22T04:25:37.043Z,22.80
2023-02-22T04:28:39.047Z,25.63
2023-02-22T04:31:41.435Z,23.40
2023-02-22T04:34:43.434Z,34.27
2023-02-22T04:37:45.750Z,28.50
2023-02-22T04:40:47.921Z,31.27
2023-02-22T04:43:50.402Z,28.43
2023-02-22T04:46:52.699Z,33.03
2023-02-22T04:49:54.992Z,27.90
2023-02-22T04:52:57.415Z,24.17
2023-02-22T04:55:59.781Z,27.80
2023-02-22T04:59:01.813Z,29.23
2023-02-22T05:02:04.559Z,25.13
2023-02-22T05:05:06.938Z,32.20
2023-02-22T05:08:09.269Z,33.47
2023-02-22T05:11:11.285Z,31.17
2023-02-22T05:14:13.629Z,26.23
2023-02-22T05:17:15.790Z,31.60
2023-02-22T05:20:30.239Z,28.73
2023-02-22T05:23:32.350Z,36.20
2023-02-22T05:26:34.572Z,22.37
2023-02-22T05:29:38.617Z,40.33
2023-02-22T05:32:40.961Z,34.33
2023-02-22T05:35:43.459Z,40.77
2023-02-22T05:38:45.724Z,36.77
2023-02-22T05:41:47.941Z,41.63
2023-02-22T05:44:50.264Z,37.93
2023-02-22T05:47:52.873Z,55.67
2023-02-22T05:50:56.076Z,113.90
2023-02-22T05:53:58.064Z,169.73
2023-02-22T05:57:00.394Z,86.77
2023-02-22T06:00:06.705Z,105.83
2023-02-22T06:03:10.327Z,97.17
2023-02-22T06:06:12.305Z,85.07
2023-02-22T06:09:14.576Z,123.97
2023-02-22T06:12:17.627Z,129.93
2023-02-22T06:15:21.742Z,206.07
2023-02-22T06:18:26.637Z,282.77
2023-02-22T06:21:29.832Z,272.43
2023-02-22T06:24:31.819Z,510.53
2023-02-22T06:27:34.817Z,146.97
2023-02-22T06:30:36.954Z,115.43
2023-02-22T06:33:39.328Z,230.87
2023-02-22T06:36:42.428Z,373.07
2023-02-22T06:39:44.766Z,482.53
2023-02-22T06:42:49.023Z,518.10
2023-02-22T06:45:52.506Z,439.17
2023-02-22T06:48:54.897Z,291.20
2023-02-22T06:51:57.268Z,203.07
2023-02-22T06:54:59.298Z,139.70
2023-02-22T06:58:03.965Z,111.70
2023-02-22T07:01:07.865Z,104.53
2023-02-22T07:04:11.565Z,148.37
2023-02-22T07:07:13.537Z,112.17
2023-02-22T07:10:23.211Z,96.37
2023-02-22T07:13:25.271Z,57.83
2023-02-22T07:16:27.854Z,46.10
2023-02-22T07:19:29.941Z,40.43
2023-02-22T07:22:32.179Z,30.00
2023-02-22T07:25:34.778Z,33.77
2023-02-22T07:28:37.008Z,30.90
2023-02-22T07:31:39.388Z,30.23
2023-02-22T07:34:43.043Z,30.90
2023-02-22T07:37:45.072Z,22.90
2023-02-22T07:40:54.740Z,29.93
2023-02-22T07:43:58.052Z,28.33
2023-02-22T07:47:03.637Z,30.90
2023-02-22T07:50:07.746Z,31.90
2023-02-22T07:53:20.448Z,28.23
2023-02-22T07:56:22.715Z,29.93
2023-02-22T07:59:24.957Z,23.47
2023-02-22T08:02:27.101Z,24.63
2023-02-22T08:05:31.241Z,25.03
2023-02-22T08:08:36.407Z,23.17
2023-02-22T08:11:41.728Z,26.00
2023-02-22T08:14:43.709Z,22.13
2023-02-22T08:17:46.049Z,24.33
2023-02-22T08:20:49.501Z,23.60
2023-02-22T08:23:54.395Z,23.63
2023-02-22T08:26:58.747Z,23.13
2023-02-22T08:30:01.043Z,23.73
2023-02-22T08:33:04.376Z,23.80
2023-02-22T08:36:09.279Z,21.00
2023-02-22T08:39:11.465Z,24.53
2023-02-22T08:42:13.756Z,23.67
2023-02-22T08:45:16.484Z,29.03
2023-02-22T08:48:20.761Z,20.20
2023-02-22T08:51:22.956Z,16.33
2023-02-22T08:54:25.324Z,21.67
2023-02-22T08:57:27.458Z,24.33
2023-02-22T09:00:33.647Z,22.73
2023-02-22T09:03:35.710Z,21.83
2023-02-22T09:06:41.856Z,23.43
2023-02-22T09:09:44.714Z,21.30
2023-02-22T09:12:47.009Z,24.03
2023-02-22T09:15:51.484Z,21.53
2023-02-22T09:18:53.732Z,21.27
2023-02-22T09:21:58.541Z,19.40
2023-02-22T09:25:11.282Z,21.73
2023-02-22T09:28:18.574Z,19.73
2023-02-22T09:31:21.408Z,26.77
2023-02-22T09:34:31.942Z,23.00
2023-02-22T09:37:34.211Z,21.33
2023-02-22T09:40:44.862Z,20.10
2023-02-22T09:44:21.158Z,25.27
2023-02-22T09:47:32.516Z,23.83
2023-02-22T09:50:42.314Z,22.10
2023-02-22T09:53:50.433Z,20.47
2023-02-22T09:56:57.500Z,20.37
2023-02-22T10:00:12.976Z,21.67
2023-02-22T10:03:40.446Z,19.10
2023-02-22T10:07:06.943Z,22.57
2023-02-22T10:10:18.569Z,17.90
2023-02-22T10:13:51.221Z,17.13
2023-02-22T10:17:15.326Z,15.97
2023-02-22T10:20:43.473Z,17.73
2023-02-22T10:24:07.516Z,16.43
2023-02-22T10:27:36.457Z,15.67
2023-02-22T10:30:49.327Z,12.00
2023-02-22T10:34:05.842Z,13.63
2023-02-22T10:37:30.608Z,17.83
2023-02-22T10:40:35.227Z,13.47
2023-02-22T10:43:38.688Z,16.50
2023-02-22T10:46:43.222Z,25.57
2023-02-22T10:49:57.136Z,16.40
2023-02-22T10:52:59.300Z,13.33
2023-02-22T10:56:16.860Z,13.77
2023-02-22T10:59:29.243Z,14.17
2023-02-22T11:02:35.993Z,16.27
2023-02-22T11:05:42.889Z,15.47
2023-02-22T11:08:51.435Z,11.63
2023-02-22T11:12:12.026Z,12.17
2023-02-22T11:15:17.299Z,12.83
2023-02-22T11:18:26.861Z,12.83
2023-02-22T11:21:32.335Z,12.13
2023-02-22T11:24:48.500Z,12.63
2023-02-22T11:27:52.519Z,14.60
2023-02-22T11:30:57.628Z,14.33
2023-02-22T11:34:03.622Z,16.17
2023-02-22T11:37:29.747Z,14.60
2023-02-22T11:40:34.523Z,16.63
2023-02-22T11:43:37.673Z,14.97
2023-02-22T11:46:41.639Z,9.57
2023-02-22T11:49:45.869Z,12.90
2023-02-22T11:52:53.212Z,13.80
2023-02-22T11:56:41.386Z,12.10
2023-02-22T12:00:27.621Z,16.27
2023-02-22T12:03:38.898Z,13.97
2023-02-22T12:07:08.290Z,12.23
2023-02-22T12:10:18.186Z,13.03
2023-02-22T12:14:05.588Z,21.60
2023-02-22T12:17:10.893Z,15.87
2023-02-22T12:20:27.137Z,20.47
2023-02-22T12:23:53.392Z,11.83
2023-02-22T12:27:04.573Z,12.70
2023-02-22T12:30:26.353Z,12.83
2023-02-22T12:33:34.370Z,14.27
2023-02-22T12:36:43.608Z,12.63
2023-02-22T12:40:01.243Z,14.07
2023-02-22T12:43:22.630Z,11.57
2023-02-22T12:46:49.526Z,15.33
2023-02-22T12:50:28.587Z,15.77
2023-02-22T12:53:41.180Z,14.90
2023-02-22T12:57:22.909Z,8.10
2023-02-22T13:00:40.065Z,7.33
2023-02-22T13:03:44.034Z,12.07
2023-02-22T13:07:25.712Z,12.67
2023-02-22T13:10:36.824Z,15.20
2023-02-22T13:13:56.058Z,12.63
2023-02-22T13:17:20.811Z,8.83
2023-02-22T13:20:27.294Z,12.63
2023-02-22T13:23:48.822Z,17.73
2023-02-22T13:26:56.863Z,11.63
2023-02-22T13:30:00.248Z,9.70
2023-02-22T13:33:42.285Z,9.93
2023-02-22T13:37:28.023Z,12.70
2023-02-22T13:40:54.937Z,8.43
2023-02-22T13:44:12.342Z,10.77
2023-02-22T13:47:34.545Z,11.33
2023-02-22T13:50:36.716Z,10.50
2023-02-22T13:53:48.258Z,11.43
2023-02-22T13:56:52.837Z,7.37
2023-02-22T14:00:23.384Z,12.13
2023-02-22T14:03:40.705Z,16.23
2023-02-22T14:06:44.153Z,10.00
2023-02-22T14:09:50.530Z,12.67
2023-02-22T14:12:53.139Z,7.30
2023-02-22T14:16:01.141Z,8.27
2023-02-22T14:19:15.582Z,6.30
2023-02-22T14:22:27.793Z,7.13
2023-02-22T14:25:38.512Z,12.57
2023-02-22T14:28:46.229Z,8.73
2023-02-22T14:31:54.109Z,15.70
2023-02-22T14:35:09.638Z,6.47
2023-02-22T14:38:19.804Z,9.93
2023-02-22T14:41:28.917Z,7.40
2023-02-22T14:44:40.029Z,10.10
2023-02-22T14:48:04.199Z,9.23
2023-02-22T14:51:26.907Z,6.40
2023-02-22T14:54:44.910Z,7.07
2023-02-22T14:58:08.581Z,6.53
2023-02-22T15:01:44.317Z,5.90
2023-02-22T15:04:54.684Z,8.40
2023-02-22T15:08:02.673Z,11.70
2023-02-22T15:11:05.710Z,11.27
2023-02-22T15:14:25.635Z,10.07
2023-02-22T15:17:28.378Z,8.30
2023-02-22T15:20:30.630Z,11.10
2023-02-22T15:24:00.391Z,10.97
2023-02-22T15:27:17.424Z,9.93
2023-02-22T15:30:23.535Z,13.70
2023-02-22T15:33:31.507Z,9.93
2023-02-22T15:36:35.240Z,9.50
2023-02-22T15:39:43.778Z,9.97
2023-02-22T15:42:53.188Z,9.07
2023-02-22T15:46:00.251Z,11.23
2023-02-22T15:49:12.228Z,12.27
2023-02-22T15:52:25.888Z,9.37
2023-02-22T15:55:35.377Z,8.97
2023-02-22T15:58:39.077Z,11.47
2023-02-22T16:01:43.809Z,10.87
2023-02-22T16:04:59.048Z,10.97
2023-02-22T16:08:01.993Z,12.73
2023-02-22T16:11:15.102Z,10.80
2023-02-22T16:14:31.082Z,16.37
2023-02-22T16:17:49.297Z,12.60
2023-02-22T16:21:23.888Z,12.37
2023-02-22T16:24:28.056Z,9.33
2023-02-22T16:27:30.467Z,12.80
2023-02-22T16:30:36.524Z,15.90
2023-02-22T16:33:41.385Z,12.93
2023-02-22T16:36:47.489Z,11.60
2023-02-22T16:39:51.868Z,12.23
2023-02-22T16:42:53.872Z,16.60
2023-02-22T16:46:00.022Z,16.97
2023-02-22T16:49:03.424Z,15.07
2023-02-22T16:52:07.557Z,12.83
2023-02-22T16:55:15.947Z,19.37
2023-02-22T16:58:27.835Z,16.47
2023-02-22T17:01:31.352Z,12.77
2023-02-22T17:04:34.487Z,13.70
2023-02-22T17:07:36.626Z,23.27
2023-02-22T17:10:39.082Z,19.80
2023-02-22T17:13:41.122Z,31.17
2023-02-22T17:16:49.084Z,24.67
2023-02-22T17:19:51.366Z,20.60
2023-02-22T17:22:53.753Z,40.13
2023-02-22T17:25:59.216Z,31.93
2023-02-22T17:29:01.528Z,29.70
2023-02-22T17:32:04.379Z,21.20
2023-02-22T17:35:06.906Z,22.37
2023-02-22T17:38:09.852Z,35.90
2023-02-22T17:41:12.120Z,29.43
2023-02-22T17:44:14.236Z,31.30
2023-02-22T17:47:16.596Z,43.57
2023-02-22T17:50:20.440Z,37.03
2023-02-22T17:53:24.872Z,35.77
2023-02-22T17:56:27.042Z,24.37
2023-02-22T17:59:29.741Z,22.90
2023-02-22T18:02:34.559Z,15.57
2023-02-22T18:05:42.633Z,30.33
2023-02-22T18:08:47.705Z,31.53
2023-02-22T18:11:49.944Z,20.70
2023-02-22T18:14:53.266Z,13.43
2023-02-22T18:17:56.451Z,14.13
2023-02-22T18:21:01.830Z,16.47
2023-02-22T18:24:04.697Z,18.57
2023-02-22T18:27:06.764Z,20.27
2023-02-22T18:30:10.151Z,22.40
2023-02-22T18:33:13.137Z,17.73
2023-02-22T18:36:16.832Z,20.20
2023-02-22T18:39:19.138Z,21.00
2023-02-22T18:42:23.650Z,19.10
2023-02-22T18:45:27.892Z,22.50
2023-02-22T18:48:30.285Z,22.67
2023-02-22T18:51:33.822Z,25.63
2023-02-22T18:54:38.420Z,26.93
2023-02-22T18:57:41.045Z,29.40
2023-02-22T19:00:43.377Z,32.70
2023-02-22T19:03:49.446Z,31.37
2023-02-22T19:06:55.556Z,25.93
2023-02-22T19:09:57.781Z,31.90
2023-02-22T19:13:00.142Z,26.10
2023-02-22T19:16:04.127Z,30.47
2023-02-22T19:19:06.709Z,22.67
2023-02-22T19:22:08.898Z,30.33
2023-02-22T19:25:12.165Z,28.83
2023-02-22T19:28:16.100Z,27.33
2023-02-22T19:31:29.406Z,28.43
2023-02-22T19:34:31.650Z,23.53
2023-02-22T19:37:35.512Z,25.67
2023-02-22T19:40:37.667Z,26.43
2023-02-22T19:43:40.034Z,25.40
2023-02-22T19:46:42.135Z,25.47
2023-02-22T19:49:44.697Z,29.13
2023-02-22T19:52:47.184Z,24.00
2023-02-22T19:55:49.643Z,26.50
2023-02-22T19:58:51.610Z,26.17
2023-02-22T20:01:55.299Z,23.43
2023-02-22T20:04:57.311Z,30.77
2023-02-22T20:08:00.033Z,30.73
2023-02-22T20:11:02.510Z,30.30
2023-02-22T20:14:08.427Z,25.30
2023-02-22T20:17:10.553Z,25.80
2023-02-22T20:20:13.705Z,25.37
2023-02-22T20:23:22.118Z,29.83
2023-02-22T20:26:34.733Z,23.17
2023-02-22T20:33:11.718Z,26.27
2023-02-22T20:36:23.690Z,27.27
2023-02-22T20:39:31.482Z,25.23
2023-02-22T20:42:46.101Z,30.97
2023-02-22T20:45:50.174Z,31.30
2023-02-22T20:49:03.315Z,27.50
2023-02-22T20:52:10.356Z,27.07
2023-02-22T20:55:22.828Z,28.80
2023-02-22T20:58:29.278Z,28.80
2023-02-22T21:01:35.930Z,29.53
2023-02-22T21:04:45.301Z,27.53
2023-02-22T21:07:51.576Z,29.23
2023-02-22T21:10:53.653Z,31.83
2023-02-22T21:13:59.120Z,28.17
2023-02-22T21:17:04.034Z,30.07
2023-02-22T21:20:12.204Z,28.20
2023-02-22T21:23:16.096Z,29.37
2023-02-22T21:30:12.107Z,27.33
2023-02-22T21:34:01.190Z,27.93
2023-02-22T21:37:07.954Z,25.30
2023-02-22T21:41:00.785Z,32.23
2023-02-22T21:44:03.131Z,29.93
2023-02-22T21:47:05.556Z,28.87
2023-02-22T21:50:10.313Z,34.93
2023-02-22T21:53:18.569Z,26.87
2023-02-22T21:56:32.575Z,33.40
2023-02-22T21:59:35.295Z,25.67
2023-02-22T22:02:38.195Z,31.50
2023-02-22T22:05:40.538Z,28.13
2023-02-22T22:08:43.320Z,29.40
2023-02-22T22:11:53.593Z,26.20
2023-02-22T22:14:55.892Z,27.93
2023-02-22T22:18:05.487Z,25.07
2023-02-22T22:21:20.040Z,30.03
2023-02-22T22:24:24.031Z,26.90
2023-02-22T22:27:27.335Z,26.30
2023-02-22T22:30:29.378Z,23.83
2023-02-22T22:33:31.851Z,21.70
2023-02-22T22:36:34.809Z,24.90
2023-02-22T22:39:38.744Z,22.77
2023-02-22T22:42:40.859Z,21.87
2023-02-22T22:45:43.671Z,23.73
2023-02-22T22:48:47.229Z,24.90
2023-02-22T22:51:49.618Z,25.77
2023-02-22T22:54:51.617Z,22.47
2023-02-22T22:57:53.877Z,24.03
2023-02-22T23:01:00.051Z,24.63
2023-02-22T23:04:05.007Z,22.57
2023-02-22T23:07:07.108Z,24.63
2023-02-22T23:10:12.699Z,24.30
2023-02-22T23:13:15.652Z,24.73
2023-02-22T23:16:19.832Z,25.37
2023-02-22T23:19:22.783Z,23.97
2023-02-22T23:22:25.141Z,20.93
2023-02-22T23:25:27.500Z,23.40
2023-02-22T23:28:29.893Z,20.00
2023-02-22T23:31:32.272Z,21.00
2023-02-22T23:34:36.808Z,22.53
2023-02-22T23:37:39.930Z,21.73
2023-02-22T23:40:44.696Z,22.13
2023-02-22T23:43:47.274Z,23.53
2023-02-22T23:46:55.269Z,21.93
2023-02-22T23:49:59.011Z,22.43
2023-02-22T23:53:03.536Z,20.97
2023-02-22T23:56:09.978Z,20.83
2023-02-22T23:59:12.598Z,18.97
